createdAt,value
2016-01-16T12:13:44.129Z,47.03
2016-01-16T12:14:44.084Z,40.51
2016-01-16T12:15:44.119Z,40.22
2016-01-16T12:16:44.152Z,40.97
2016-01-16T12:17:44.218Z,41.64
2016-01-16T12:18:44.251Z,43.18
2016-01-16T12:19:44.301Z,42.89
2016-01-16T12:20:44.335Z,41.43
2016-01-16T12:21:44.338Z,41.55
2016-01-16T12:22:44.387Z,41.93
2016-01-16T12:23:44.452Z,42.58
2016-01-16T12:24:44.502Z,42.77
2016-01-16T12:25:44.552Z,43.54
2016-01-16T12:26:44.585Z,44.12
2016-01-16T12:27:44.620Z,44.31
2016-01-16T12:28:44.685Z,43.93
2016-01-16T12:29:44.704Z,45.08
2016-01-16T12:30:44.753Z,44.02
2016-01-16T12:31:44.802Z,42.87
2016-01-16T12:32:44.837Z,43.16
2016-01-16T12:33:44.871Z,43.45
2016-01-16T12:34:44.936Z,44.31
2016-01-16T12:35:45.142Z,43.93
2016-01-16T12:36:45.019Z,43.54
2016-01-16T12:37:45.053Z,43.54
2016-01-16T12:38:45.103Z,43.74
2016-01-16T12:39:45.152Z,43.54
2016-01-16T12:40:45.170Z,43.54
2016-01-16T12:41:45.220Z,43.74
2016-01-16T12:42:45.269Z,44.02
2016-01-16T12:43:45.303Z,44.22
2016-01-16T12:44:45.338Z,44.22
2016-01-16T12:45:45.386Z,44.12
2016-01-16T12:46:45.436Z,44.12
2016-01-16T12:47:45.486Z,44.22
2016-01-16T12:48:45.536Z,43.91
2016-01-16T12:49:45.554Z,43.91
2016-01-16T12:50:45.588Z,44.2
2016-01-16T12:51:45.638Z,43.91
2016-01-16T12:52:45.688Z,43.81
2016-01-16T12:53:45.721Z,44
2016-01-16T12:54:45.786Z,44.38
2016-01-16T12:55:45.821Z,44.2
2016-01-16T12:56:45.854Z,44.1
2016-01-16T12:57:45.904Z,44.1
2016-01-16T12:58:45.938Z,44
2016-01-16T12:59:45.987Z,44
2016-01-16T13:00:46.037Z,44
2016-01-16T13:01:46.087Z,44
2016-01-16T13:02:46.118Z,44.1
2016-01-16T13:03:46.151Z,44.29
2016-01-16T13:04:46.186Z,44.38
2016-01-16T13:05:46.235Z,44.2
2016-01-16T13:06:46.269Z,44.29
2016-01-16T13:07:46.334Z,44.29
2016-01-16T13:08:46.400Z,44.1
2016-01-16T13:09:46.434Z,44.38
2016-01-16T13:10:46.452Z,44.38
2016-01-16T13:11:46.486Z,44.1
2016-01-16T13:12:46.536Z,44.29
2016-01-16T13:13:46.586Z,44.29
2016-01-16T13:14:46.619Z,44.29
2016-01-16T13:15:46.669Z,44.29
2016-01-16T13:16:46.734Z,44.38
2016-01-16T13:17:46.767Z,43.93
2016-01-16T13:18:46.802Z,44.2
2016-01-16T13:19:46.836Z,43.81
2016-01-16T13:20:46.855Z,43.84
2016-01-16T13:21:46.920Z,43.93
2016-01-16T13:22:46.952Z,44.41
2016-01-16T13:23:47.019Z,44.22
2016-01-16T13:24:47.036Z,44.41
2016-01-16T13:25:47.086Z,44.02
2016-01-16T13:26:47.135Z,43.84
2016-01-16T13:27:47.169Z,44.7
2016-01-16T13:28:47.204Z,44.7
2016-01-16T13:29:47.269Z,44.31
2016-01-16T13:30:47.302Z,44.7
2016-01-16T13:31:47.352Z,44.79
2016-01-16T13:32:47.387Z,44.6
2016-01-16T13:33:47.421Z,44.89
2016-01-16T13:34:47.501Z,44.89
2016-01-16T13:35:47.520Z,44.77
2016-01-16T13:36:47.568Z,44.96
2016-01-16T13:37:47.587Z,45.06
2016-01-16T13:38:47.637Z,45.45
2016-01-16T13:39:47.687Z,45.54
2016-01-16T13:40:47.783Z,45.54
2016-01-16T13:41:47.786Z,46.04
2016-01-16T13:42:47.835Z,44.96
2016-01-16T13:43:47.869Z,45.92
2016-01-16T13:44:47.903Z,45.06
2016-01-16T13:45:47.937Z,45.54
2016-01-16T13:46:48.003Z,45.06
2016-01-16T13:47:48.020Z,45.25
2016-01-16T13:48:48.070Z,45.73
2016-01-16T13:49:48.119Z,45.66
2016-01-16T13:50:48.153Z,46.02
2016-01-16T13:51:48.188Z,45.35
2016-01-16T13:52:48.236Z,46.31
2016-01-16T13:53:48.271Z,45.54
2016-01-16T13:54:48.336Z,45.64
2016-01-16T13:55:48.385Z,46.12
2016-01-16T13:56:48.404Z,46.02
2016-01-16T13:57:48.454Z,46.12
2016-01-16T13:58:48.487Z,46.98
2016-01-16T13:59:48.537Z,46.53
2016-01-16T14:00:48.587Z,46.91
2016-01-16T14:01:48.621Z,47.2
2016-01-16T14:02:48.654Z,46.53
2016-01-16T14:03:48.704Z,46.16
2016-01-16T14:04:48.754Z,45.01
2016-01-16T14:05:48.804Z,45.59
2016-01-16T14:06:48.853Z,46.16
2016-01-16T14:07:48.871Z,46.91
2016-01-16T14:08:48.921Z,47.2
2016-01-16T14:09:48.971Z,46.74
2016-01-16T14:10:49.035Z,46.26
2016-01-16T14:11:49.054Z,46.55
2016-01-16T14:12:49.104Z,46.45
2016-01-16T14:13:49.138Z,46.64
2016-01-16T14:14:49.171Z,46.55
2016-01-16T14:15:49.221Z,46.64
2016-01-16T14:16:49.271Z,46.64
2016-01-16T14:17:49.351Z,47.1
2016-01-16T14:18:49.369Z,46.53
2016-01-16T14:19:49.389Z,46.81
2016-01-16T14:20:49.437Z,47.1
2016-01-16T14:21:49.471Z,47.1
2016-01-16T14:22:49.522Z,47.1
2016-01-16T14:23:49.570Z,47.08
2016-01-16T14:24:49.605Z,46.81
2016-01-16T14:25:49.654Z,46.98
2016-01-16T14:26:49.703Z,47.46
2016-01-16T14:27:49.769Z,47.66
2016-01-16T14:28:49.787Z,47.66
2016-01-16T14:29:49.805Z,47.36
2016-01-16T14:30:49.886Z,48.23
2016-01-16T14:31:49.905Z,48.43
2016-01-16T14:32:49.985Z,48.43
2016-01-16T14:33:50.019Z,48.52
2016-01-16T14:34:50.038Z,48.13
2016-01-16T14:35:50.071Z,47.94
2016-01-16T14:36:50.121Z,48.23
2016-01-16T14:37:50.155Z,48.23
2016-01-16T14:38:50.221Z,48.21
2016-01-16T14:39:50.238Z,48.33
2016-01-16T14:40:50.287Z,48.43
2016-01-16T14:41:50.323Z,48.52
2016-01-16T14:42:50.387Z,48.3
2016-01-16T14:43:50.436Z,48.11
2016-01-16T14:44:50.471Z,48.21
2016-01-16T14:45:50.505Z,48.02
2016-01-16T14:46:50.539Z,48.4
2016-01-16T14:47:50.588Z,48.21
2016-01-16T14:48:50.637Z,48.04
2016-01-16T14:49:50.687Z,47.27
2016-01-16T14:50:50.705Z,47.66
2016-01-16T14:51:50.755Z,47.36
2016-01-16T14:52:50.805Z,47.08
2016-01-16T14:53:50.854Z,47.56
2016-01-16T14:54:50.872Z,47.08
2016-01-16T14:55:50.938Z,46.79
2016-01-16T14:56:50.972Z,46.98
2016-01-16T14:57:51.022Z,46.98
2016-01-16T14:58:51.102Z,46.69
2016-01-16T14:59:51.105Z,46.69
2016-01-16T15:00:51.139Z,46.98
2016-01-16T15:01:51.173Z,46.5
2016-01-16T15:02:51.238Z,46.5
2016-01-16T15:03:51.288Z,46.59
2016-01-16T15:04:51.322Z,46.5
2016-01-16T15:05:51.340Z,46.59
2016-01-16T15:06:51.373Z,46.5
2016-01-16T15:07:51.423Z,46.12
2016-01-16T15:08:51.488Z,46.31
2016-01-16T15:09:51.523Z,46.59
2016-01-16T15:10:51.571Z,46.41
2016-01-16T15:11:51.606Z,46.5
2016-01-16T15:12:51.640Z,46.5
2016-01-16T15:13:51.721Z,46.5
2016-01-16T15:14:51.739Z,46.31
2016-01-16T15:15:51.804Z,46.21
2016-01-16T15:16:51.838Z,46.59
2016-01-16T15:17:51.872Z,46.59
2016-01-16T15:18:51.890Z,46.12
2016-01-16T15:19:51.940Z,46.69
2016-01-16T15:20:51.974Z,46.5
2016-01-16T15:21:52.039Z,46.5
2016-01-16T15:22:52.073Z,46.02
2016-01-16T15:23:52.123Z,46.21
2016-01-16T15:24:52.156Z,46.21
2016-01-16T15:25:52.206Z,46.59
2016-01-16T15:26:52.240Z,46.31
2016-01-16T15:27:52.321Z,46.59
2016-01-16T15:28:52.324Z,46.98
2016-01-16T15:29:52.372Z,46.69
2016-01-16T15:30:52.422Z,47.08
2016-01-16T15:31:52.457Z,46.98
2016-01-16T15:32:52.538Z,46.5
2016-01-16T15:33:52.555Z,47.08
2016-01-16T15:34:52.574Z,47.3
2016-01-16T15:35:52.623Z,47.56
2016-01-16T15:36:52.673Z,47.17
2016-01-16T15:37:52.723Z,47.3
2016-01-16T15:38:52.772Z,47.17
2016-01-16T15:39:52.884Z,47.87
2016-01-16T15:40:52.856Z,48.35
2016-01-16T15:41:52.890Z,48.07
2016-01-16T15:42:52.924Z,48.45
2016-01-16T15:43:52.990Z,48.35
2016-01-16T15:44:53.023Z,49.02
2016-01-16T15:45:53.073Z,48.25
2016-01-16T15:46:53.122Z,48.25
2016-01-16T15:47:53.203Z,48.74
2016-01-16T15:48:53.237Z,48.45
2016-01-16T15:49:53.240Z,48.35
2016-01-16T15:50:53.289Z,49.31
2016-01-16T15:51:53.307Z,49.12
2016-01-16T15:52:53.356Z,49.12
2016-01-16T15:53:53.437Z,48.45
2016-01-16T15:54:53.440Z,49.41
2016-01-16T15:55:53.505Z,50.37
2016-01-16T15:56:53.742Z,51.04
2016-01-16T15:57:53.602Z,48.93
2016-01-16T15:58:53.636Z,49.99
2016-01-16T15:59:53.654Z,50.27
2016-01-16T16:00:53.736Z,51.02
2016-01-16T16:01:53.753Z,48.71
2016-01-16T16:02:53.772Z,50.25
2016-01-16T16:03:53.869Z,50.34
2016-01-16T16:04:53.871Z,49.77
2016-01-16T16:05:53.952Z,50.54
2016-01-16T16:06:53.954Z,50.54
2016-01-16T16:07:53.989Z,50.44
2016-01-16T16:08:54.069Z,51.11
2016-01-16T16:09:54.103Z,50.63
2016-01-16T16:10:54.168Z,49.96
2016-01-16T16:11:54.155Z,49.87
2016-01-16T16:12:54.251Z,49.57
2016-01-16T16:13:54.270Z,49.1
2016-01-16T16:14:54.304Z,49.96
2016-01-16T16:15:54.369Z,49.96
2016-01-16T16:16:54.403Z,49.38
2016-01-16T16:17:54.406Z,49.38
2016-01-16T16:18:54.534Z,49.77
2016-01-16T16:19:54.504Z,49.96
2016-01-16T16:20:54.383Z,49.87
2016-01-16T16:21:54.604Z,48.71
2016-01-16T16:22:54.638Z,48.71
2016-01-16T16:23:54.766Z,48.81
2016-01-16T16:24:54.768Z,49
2016-01-16T16:25:55.053Z,49.96
2016-01-16T16:26:56.447Z,48.23
2016-01-16T16:27:54.902Z,48.23
2016-01-16T16:28:54.951Z,49.51
2016-01-16T16:29:54.940Z,48.93
2016-01-16T16:30:54.973Z,48.64
2016-01-16T16:31:55.117Z,48.74
2016-01-16T16:32:55.041Z,49.69
2016-01-16T16:33:55.091Z,48.74
2016-01-16T16:34:55.296Z,49.02
2016-01-16T16:35:55.159Z,49.79
2016-01-16T16:36:55.255Z,48.35
2016-01-16T16:37:55.259Z,47.3
2016-01-16T16:38:55.307Z,48.25
2016-01-16T16:39:55.373Z,49.12
2016-01-16T16:40:55.437Z,48.43
2016-01-16T16:41:55.440Z,47.39
2016-01-16T16:42:56.130Z,48.13
2016-01-16T16:43:55.509Z,48.23
2016-01-16T16:44:55.714Z,49
2016-01-16T16:45:55.623Z,48.07
2016-01-16T16:46:55.704Z,48.04
2016-01-16T16:47:55.676Z,48.35
2016-01-16T16:48:55.772Z,48.61
2016-01-16T16:49:55.853Z,47.77
2016-01-16T16:50:55.934Z,48.23
2016-01-16T16:51:55.983Z,49.48
2016-01-16T16:52:55.909Z,48.71
2016-01-16T16:53:55.958Z,48.61
2016-01-16T16:54:56.008Z,48.9
2016-01-16T16:55:56.026Z,48.61
2016-01-16T16:56:56.139Z,48.33
2016-01-16T16:57:56.109Z,48.43
2016-01-16T16:58:56.143Z,48.61
2016-01-16T16:59:56.194Z,48.61
2016-01-16T17:00:56.243Z,48.52
2016-01-16T17:01:56.277Z,48.71
2016-01-16T17:02:56.329Z,48.52
2016-01-16T17:03:56.379Z,48.04
2016-01-16T17:04:56.398Z,48.33
2016-01-16T17:05:56.463Z,48.04
2016-01-16T17:06:56.481Z,48.33
2016-01-16T17:07:56.547Z,48.13
2016-01-16T17:08:56.581Z,48.33
2016-01-16T17:09:56.615Z,48.61
2016-01-16T17:10:56.664Z,48.52
2016-01-16T17:11:56.714Z,48.61
2016-01-16T17:12:56.748Z,48.23
2016-01-16T17:13:56.781Z,48.43
2016-01-16T17:14:56.831Z,48.33
2016-01-16T17:15:56.865Z,48.04
2016-01-16T17:16:56.914Z,48.23
2016-01-16T17:17:56.964Z,48.23
2016-01-16T17:18:56.997Z,48.33
2016-01-16T17:19:57.047Z,48.13
2016-01-16T17:20:57.098Z,48.43
2016-01-16T17:21:57.115Z,48.23
2016-01-16T17:22:57.180Z,48.13
2016-01-16T17:23:57.215Z,48.04
2016-01-16T17:24:57.264Z,48.04
2016-01-16T17:25:57.298Z,48.23
2016-01-16T17:26:57.348Z,48.13
2016-01-16T17:27:57.382Z,48.33
2016-01-16T17:28:57.432Z,48.61
2016-01-16T17:29:57.466Z,47.39
2016-01-16T17:30:57.499Z,47.39
2016-01-16T17:31:57.549Z,47.97
2016-01-16T17:32:57.645Z,48.35
2016-01-16T17:33:57.648Z,47.77
2016-01-16T17:34:57.729Z,47.56
2016-01-16T17:35:57.779Z,48.35
2016-01-16T17:36:57.766Z,48.45
2016-01-16T17:37:57.831Z,48.54
2016-01-16T17:38:57.864Z,48.54
2016-01-16T17:39:57.899Z,48.93
2016-01-16T17:40:57.948Z,48.74
2016-01-16T17:41:57.981Z,48.93
2016-01-16T17:42:58.079Z,48.52
2016-01-16T17:43:58.081Z,48.52
2016-01-16T17:44:58.225Z,48.64
2016-01-16T17:45:58.211Z,48.16
2016-01-16T17:46:58.198Z,48.45
2016-01-16T17:47:58.248Z,48.74
2016-01-16T17:48:58.313Z,48.16
2016-01-16T17:49:58.331Z,48.35
2016-01-16T17:50:58.616Z,49.12
2016-01-16T17:51:58.428Z,48.54
2016-01-16T17:52:58.478Z,49.1
2016-01-16T17:53:58.543Z,49.12
2016-01-16T17:54:58.672Z,49.19
2016-01-16T17:55:58.627Z,48.43
2016-01-16T17:56:58.660Z,49
2016-01-16T17:57:58.725Z,49
2016-01-16T17:58:58.791Z,49.29
2016-01-16T17:59:58.763Z,49
2016-01-16T18:00:58.796Z,48.71
2016-01-16T18:01:58.815Z,49.1
2016-01-16T18:02:58.880Z,49
2016-01-16T18:03:59.008Z,48.9
2016-01-16T18:04:59.026Z,48.81
2016-01-16T18:05:59.060Z,49.1
2016-01-16T18:06:59.062Z,48.13
2016-01-16T18:07:59.097Z,48.04
2016-01-16T18:08:59.130Z,48.23
2016-01-16T18:09:59.180Z,48.35
2016-01-16T18:10:59.214Z,48.35
2016-01-16T18:11:59.249Z,48.25
2016-01-16T18:12:59.298Z,48.54
2016-01-16T18:13:59.348Z,47.97
2016-01-16T18:14:59.381Z,48.74
2016-01-16T18:15:59.431Z,48.74
2016-01-16T18:16:59.464Z,48.74
2016-01-16T18:17:59.515Z,49.79
2016-01-16T18:18:59.564Z,48.74
2016-01-16T18:19:59.613Z,49.51
2016-01-16T18:20:59.631Z,50.08
2016-01-16T18:21:59.665Z,49.31
2016-01-16T18:22:59.715Z,49.89
2016-01-16T18:23:59.764Z,49.41
2016-01-16T18:24:59.798Z,49.02
2016-01-16T18:25:59.848Z,50.66
2016-01-16T18:26:59.883Z,51.72
2016-01-16T18:27:59.932Z,49.43
2016-01-16T18:28:59.966Z,51.26
2016-01-16T18:30:00.030Z,51.74
2016-01-16T18:31:00.065Z,51.26
2016-01-16T18:32:00.099Z,51.26
2016-01-16T18:33:00.149Z,50.2
2016-01-16T18:34:00.198Z,50.56
2016-01-16T18:35:00.247Z,50.76
2016-01-16T18:36:00.266Z,51.23
2016-01-16T18:37:00.316Z,51.33
2016-01-16T18:38:00.365Z,50.3
2016-01-16T18:39:00.414Z,51.84
2016-01-16T18:40:00.449Z,51.74
2016-01-16T18:41:00.498Z,52.22
2016-01-16T18:42:00.532Z,51.74
2016-01-16T18:43:00.582Z,51.74
2016-01-16T18:44:00.615Z,51.93
2016-01-16T18:45:00.665Z,51.93
2016-01-16T18:46:00.698Z,51.74
2016-01-16T18:47:00.748Z,52.42
2016-01-16T18:48:00.782Z,52.12
2016-01-16T18:49:00.847Z,51.74
2016-01-16T18:50:00.866Z,51.93
2016-01-16T18:51:00.931Z,52.03
2016-01-16T18:52:00.793Z,51.74
2016-01-16T18:53:01.015Z,52.12
2016-01-16T18:54:01.049Z,51.53
2016-01-16T18:55:01.083Z,50.85
2016-01-16T18:56:01.132Z,52.03
2016-01-16T18:57:01.167Z,52.1
2016-01-16T18:58:01.217Z,51.72
2016-01-16T18:59:01.266Z,51.72
2016-01-16T19:00:01.301Z,52.1
2016-01-16T19:01:01.381Z,52.87
2016-01-16T19:02:01.384Z,52.1
2016-01-16T19:03:01.434Z,52.2
2016-01-16T19:04:01.483Z,50.95
2016-01-16T19:05:01.532Z,51.04
2016-01-16T19:06:15.660Z,51.43
2016-01-16T19:07:01.584Z,52
2016-01-16T19:08:01.650Z,52
2016-01-16T19:09:01.700Z,51.43
2016-01-16T19:10:01.734Z,52.1
2016-01-16T19:11:01.767Z,51.62
2016-01-16T19:12:01.833Z,51.14
2016-01-16T19:13:01.850Z,51.23
2016-01-16T19:14:01.900Z,50.95
2016-01-16T19:15:01.950Z,51.53
2016-01-16T19:16:01.984Z,50.18
2016-01-16T19:17:02.033Z,50.18
2016-01-16T19:18:02.067Z,50.46
2016-01-16T19:19:02.116Z,51.04
2016-01-16T19:20:02.152Z,50.46
2016-01-16T19:21:02.200Z,50.37
2016-01-16T19:22:02.250Z,50.56
2016-01-16T19:23:02.285Z,50.46
2016-01-16T19:24:02.350Z,50.18
2016-01-16T19:25:02.369Z,50.66
2016-01-16T19:26:02.418Z,50.76
2016-01-16T19:27:02.451Z,50.18
2016-01-16T19:28:02.517Z,50.18
2016-01-16T19:29:02.566Z,50.56
2016-01-16T19:30:02.600Z,50.76
2016-01-16T19:31:02.635Z,50.56
2016-01-16T19:32:02.685Z,50.27
2016-01-16T19:33:02.749Z,50.66
2016-01-16T19:34:02.768Z,50.85
2016-01-16T19:35:02.802Z,50.95
2016-01-16T19:36:02.835Z,51.14
2016-01-16T19:37:02.885Z,50.27
2016-01-16T19:38:02.919Z,50.66
2016-01-16T19:39:02.969Z,50.66
2016-01-16T19:40:03.034Z,50.27
2016-01-16T19:41:03.052Z,50.08
2016-01-16T19:42:03.102Z,50.08
2016-01-16T19:43:03.135Z,50.46
2016-01-16T19:44:03.184Z,50.18
2016-01-16T19:45:03.235Z,50.56
2016-01-16T19:46:03.268Z,50.37
2016-01-16T19:47:03.317Z,50.27
2016-01-16T19:48:03.367Z,50.18
2016-01-16T19:49:03.401Z,50.56
2016-01-16T19:50:03.450Z,50.27
2016-01-16T19:51:03.485Z,50.18
2016-01-16T19:52:03.534Z,50.56
2016-01-16T19:53:03.569Z,51.04
2016-01-16T19:54:03.618Z,50.37
2016-01-16T19:55:03.683Z,50.66
2016-01-16T19:56:03.702Z,50.76
2016-01-16T19:57:03.736Z,50.76
2016-01-16T19:58:03.785Z,50.37
2016-01-16T19:59:03.835Z,51.43
2016-01-16T20:00:03.853Z,50.37
2016-01-16T20:01:03.919Z,50.46
2016-01-16T20:02:03.952Z,50.66
2016-01-16T20:03:04.002Z,50.56
2016-01-16T20:04:04.052Z,50.46
2016-01-16T20:05:04.086Z,50.56
2016-01-16T20:06:04.119Z,51.33
2016-01-16T20:07:04.169Z,50.66
2016-01-16T20:08:04.219Z,50.66
2016-01-16T20:09:04.112Z,50.27
2016-01-16T20:10:04.302Z,50.37
2016-01-16T20:11:04.351Z,50.08
2016-01-16T20:12:04.385Z,49.79
2016-01-16T20:13:04.435Z,50.18
2016-01-16T20:14:04.468Z,50.08
2016-01-16T20:15:04.518Z,49.99
2016-01-16T20:16:04.646Z,49.99
2016-01-16T20:17:04.601Z,50.27
2016-01-16T20:18:04.634Z,49.89
2016-01-16T20:19:04.672Z,49.99
2016-01-16T20:20:04.710Z,50.27
2016-01-16T20:21:04.733Z,50.08
2016-01-16T20:22:04.771Z,49.79
2016-01-16T20:23:04.809Z,49.89
2016-01-16T20:24:04.840Z,49.99
2016-01-16T20:25:04.886Z,49.89
2016-01-16T20:26:04.916Z,50.18
2016-01-16T20:27:04.946Z,50.18
2016-01-16T20:28:04.992Z,50.08
2016-01-16T20:29:05.055Z,49.99
2016-01-16T20:30:05.150Z,50.18
2016-01-16T20:31:05.167Z,49.89
2016-01-16T20:32:05.153Z,49.99
2016-01-16T20:33:05.217Z,50.18
2016-01-16T20:34:05.250Z,50.08
2016-01-16T20:35:05.300Z,49.99
2016-01-16T20:36:05.411Z,49.89
2016-01-16T20:37:05.382Z,49.99
2016-01-16T20:38:05.416Z,49.89
2016-01-16T20:39:05.465Z,49.99
2016-01-16T20:40:05.498Z,49.79
2016-01-16T20:41:05.532Z,49.89
2016-01-16T20:42:05.580Z,50.08
2016-01-16T20:43:05.630Z,49.99
2016-01-16T20:44:05.680Z,49.99
2016-01-16T20:45:05.699Z,50.37
2016-01-16T20:46:05.748Z,50.37
2016-01-16T20:47:05.798Z,50.18
2016-01-16T20:48:05.846Z,49.89
2016-01-16T20:49:05.881Z,50.18
2016-01-16T20:50:05.931Z,50.56
2016-01-16T20:51:05.965Z,50.46
2016-01-16T20:52:05.999Z,50.66
2016-01-16T20:53:06.048Z,50.56
2016-01-16T20:54:06.098Z,50.46
2016-01-16T20:55:06.132Z,50.18
2016-01-16T20:56:06.181Z,50.18
2016-01-16T20:57:06.246Z,50.15
2016-01-16T20:58:06.265Z,50.34
2016-01-16T20:59:06.345Z,50.27
2016-01-16T21:00:06.379Z,50.27
2016-01-16T21:01:06.429Z,50.05
2016-01-16T21:02:06.463Z,49.99
2016-01-16T21:03:06.481Z,50.08
2016-01-16T21:04:06.530Z,49.99
2016-01-16T21:05:06.564Z,49.96
2016-01-16T21:06:06.614Z,50.08
2016-01-16T21:07:06.663Z,49.96
2016-01-16T21:08:06.682Z,49.79
2016-01-16T21:09:06.732Z,49.99
2016-01-16T21:10:06.766Z,50.05
2016-01-16T21:11:06.799Z,49.89
2016-01-16T21:12:06.865Z,49.38
2016-01-16T21:13:06.930Z,48.61
2016-01-16T21:14:06.933Z,47.46
2016-01-16T21:15:06.982Z,48.61
2016-01-16T21:16:07.016Z,48.81
2016-01-16T21:17:07.050Z,49
2016-01-16T21:18:07.131Z,49.19
2016-01-16T21:19:07.149Z,48.71
2016-01-16T21:20:07.199Z,48.52
2016-01-16T21:21:07.232Z,48.43
2016-01-16T21:22:07.267Z,48.23
2016-01-16T21:23:07.315Z,48.33
2016-01-16T21:24:07.350Z,48.71
2016-01-16T21:25:07.415Z,48.61
2016-01-16T21:26:07.433Z,48.81
2016-01-16T21:27:07.498Z,49.29
2016-01-16T21:28:07.533Z,48.9
2016-01-16T21:29:07.567Z,48.81
2016-01-16T21:30:07.616Z,49.1
2016-01-16T21:31:07.697Z,49
2016-01-16T21:32:07.715Z,48.9
2016-01-16T21:33:07.781Z,48.71
2016-01-16T21:34:07.830Z,49.1
2016-01-16T21:35:07.833Z,49.38
2016-01-16T21:36:07.883Z,48.9
2016-01-16T21:37:07.917Z,48.9
2016-01-16T21:38:07.966Z,48.9
2016-01-16T21:39:07.984Z,48.43
2016-01-16T21:40:08.065Z,48.43
2016-01-16T21:41:08.069Z,48.13
2016-01-16T21:42:08.117Z,48.33
2016-01-16T21:43:08.166Z,48.04
2016-01-16T21:44:08.216Z,47.94
2016-01-16T21:45:08.266Z,48.16
2016-01-16T21:46:08.315Z,48.33
2016-01-16T21:47:08.349Z,48.25
2016-01-16T21:48:08.383Z,48.23
2016-01-16T21:49:08.418Z,48.43
2016-01-16T21:50:08.482Z,48.61
2016-01-16T21:51:08.516Z,48.71
2016-01-16T21:52:08.566Z,48.71
2016-01-16T21:53:08.585Z,48.61
2016-01-16T21:54:08.649Z,48.52
2016-01-16T21:55:08.684Z,48.33
2016-01-16T21:56:08.748Z,48.04
2016-01-16T21:57:08.767Z,48.52
2016-01-16T21:58:08.832Z,48.61
2016-01-16T21:59:08.867Z,48.9
2016-01-16T22:00:08.901Z,48.71
2016-01-16T22:01:08.934Z,48.71
2016-01-16T22:02:08.967Z,49
2016-01-16T22:03:09.018Z,49.57
2016-01-16T22:04:09.067Z,49.19
2016-01-16T22:05:09.116Z,49.19
2016-01-16T22:06:09.151Z,49.1
2016-01-16T22:07:09.231Z,48.79
2016-01-16T22:08:09.233Z,48.9
2016-01-16T22:09:09.268Z,49.29
2016-01-16T22:10:09.317Z,49.17
2016-01-16T22:11:09.367Z,49.29
2016-01-16T22:12:09.401Z,49.38
2016-01-16T22:13:09.450Z,49.07
2016-01-16T22:14:09.469Z,49.26
2016-01-16T22:15:09.518Z,49.26
2016-01-16T22:16:09.583Z,49.36
2016-01-16T22:17:09.618Z,49.26
2016-01-16T22:18:09.683Z,49.36
2016-01-16T22:19:09.748Z,49.17
2016-01-16T22:20:09.735Z,49.17
2016-01-16T22:21:09.785Z,49.36
2016-01-16T22:22:09.804Z,49.26
2016-01-16T22:23:09.946Z,49.07
2016-01-16T22:24:09.934Z,49.07
2016-01-16T22:25:09.968Z,49.26
2016-01-16T22:26:10.001Z,48.79
2016-01-16T22:27:10.098Z,49.65
2016-01-16T22:28:10.070Z,49.17
2016-01-16T22:29:10.228Z,49.07
2016-01-16T22:30:10.153Z,48.88
2016-01-16T22:31:10.217Z,49.07
2016-01-16T22:32:10.315Z,49.07
2016-01-16T22:33:10.284Z,49.07
2016-01-16T22:34:10.333Z,49.07
2016-01-16T22:35:10.382Z,48.79
2016-01-16T22:36:10.401Z,48.69
2016-01-16T22:37:10.481Z,48.88
2016-01-16T22:38:10.500Z,48.69
2016-01-16T22:39:10.550Z,48.59
2016-01-16T22:40:10.584Z,48.59
2016-01-16T22:41:10.633Z,48.88
2016-01-16T22:42:10.650Z,48.79
2016-01-16T22:43:10.685Z,48.4
2016-01-16T22:44:10.766Z,48.69
2016-01-16T22:45:10.800Z,48.4
2016-01-16T22:46:11.036Z,48.97
2016-01-16T22:47:10.868Z,48.69
2016-01-16T22:48:10.902Z,48.88
2016-01-16T22:49:10.999Z,48.69
2016-01-16T22:50:11.063Z,48.59
2016-01-16T22:51:11.035Z,48.49
2016-01-16T22:52:11.085Z,48.69
2016-01-16T22:53:11.119Z,48.49
2016-01-16T22:54:11.169Z,48.59
2016-01-16T22:55:11.233Z,48.69
2016-01-16T22:56:11.268Z,48.49
2016-01-16T22:57:11.316Z,48.79
2016-01-16T22:58:11.351Z,48.4
2016-01-16T22:59:11.369Z,48.4
2016-01-16T23:00:11.434Z,48.59
2016-01-16T23:01:11.484Z,48.59
2016-01-16T23:02:11.518Z,48.69
2016-01-16T23:03:11.573Z,48.69
2016-01-16T23:04:11.669Z,48.4
2016-01-16T23:05:11.641Z,48.97
2016-01-16T23:06:11.675Z,48.59
2016-01-16T23:07:11.599Z,48.3
2016-01-16T23:08:11.837Z,48.69
2016-01-16T23:09:11.807Z,48.69
2016-01-16T23:10:11.842Z,48.79
2016-01-16T23:11:11.876Z,48.59
2016-01-16T23:12:11.925Z,48.88
2016-01-16T23:13:11.990Z,48.88
2016-01-16T23:14:12.071Z,48.59
2016-01-16T23:15:12.074Z,48.79
2016-01-16T23:16:12.109Z,48.79
2016-01-16T23:17:12.126Z,48.49
2016-01-16T23:18:12.193Z,48.69
2016-01-16T23:19:12.226Z,48.97
2016-01-16T23:20:12.354Z,48.59
2016-01-16T23:21:12.529Z,48.57
2016-01-16T23:22:12.328Z,48.59
2016-01-16T23:23:12.393Z,48.59
2016-01-16T23:24:12.443Z,48.69
2016-01-16T23:25:12.477Z,48.18
2016-01-16T23:26:12.574Z,48.3
2016-01-16T23:27:12.576Z,48.47
2016-01-16T23:28:12.610Z,48.47
2016-01-16T23:29:12.692Z,48.21
2016-01-16T23:30:12.710Z,48.4
2016-01-16T23:31:12.728Z,48.11
2016-01-16T23:32:12.871Z,48.4
2016-01-16T23:33:12.873Z,48.3
2016-01-16T23:34:12.876Z,48.21
2016-01-16T23:35:12.894Z,48.4
2016-01-16T23:36:12.960Z,48.4
2016-01-16T23:37:13.026Z,48.4
2016-01-16T23:38:13.153Z,48.02
2016-01-16T23:39:13.046Z,48.11
2016-01-16T23:40:13.112Z,48.4
2016-01-16T23:41:13.145Z,48.49
2016-01-16T23:42:13.242Z,48.4
2016-01-16T23:43:13.230Z,48.11
2016-01-16T23:44:13.341Z,47.92
2016-01-16T23:45:13.343Z,48.02
2016-01-16T23:46:13.408Z,48.11
2016-01-16T23:47:13.428Z,48.11
2016-01-16T23:48:13.461Z,48.49
2016-01-16T23:49:13.511Z,48.11
2016-01-16T23:50:13.544Z,48.4
2016-01-16T23:51:13.626Z,48.02
2016-01-16T23:52:13.675Z,48.21
2016-01-16T23:53:13.646Z,48.21
2016-01-16T23:54:13.712Z,48.21
2016-01-16T23:55:13.793Z,48.11
2016-01-16T23:56:13.780Z,48.3
2016-01-16T23:57:13.813Z,48.11
2016-01-16T23:58:13.862Z,48.3
2016-01-16T23:59:13.897Z,48.3
